Time;durP1;ratioP1;P1;durP2;ratioP2;P2;SDS_P1;SDS_P2;PMS_P1;PMS_P2;Temp;Humidity;BMP_temperature;BMP_pressure;BME280_temperature;BME280_humidity;BME280_pressure;Samples;Min_cycle;Max_cycle;Signal;HPM_P1;HPM_P2
2023/01/03 00:01:13;;;;;;;1.02;0.20;;;4.20;99.90;;;;;;4961562;28;20050;-65
2023/01/03 00:03:40;;;;;;;2.25;0.30;;;4.30;99.90;;;;;;4963404;28;20502;-64
2023/01/03 00:06:15;;;;;;;0.85;0.73;;;4.30;99.90;;;;;;4957109;28;20062;-64
2023/01/03 00:08:43;;;;;;;1.38;0.40;;;4.20;99.90;;;;;;4955568;28;20511;-65
2023/01/03 00:12:22;;;;;;;1.85;0.20;;;4.20;99.90;;;;;;4954266;28;20058;-64
2023/01/03 00:14:07;;;;;;;0.55;0.22;;;4.20;99.90;;;;;;4955180;28;20083;-65
2023/01/03 00:16:34;;;;;;;3.60;1.10;;;4.10;99.90;;;;;;4955714;28;20046;-65
2023/01/03 00:19:13;;;;;;;0.88;0.50;;;4.10;99.90;;;;;;4958339;28;20464;-65
2023/01/03 00:21:41;;;;;;;3.00;0.32;;;4.10;99.90;;;;;;4952569;28;20142;-65
2023/01/03 00:24:09;;;;;;;1.48;0.10;;;4.00;99.90;;;;;;4960633;28;20093;-65
2023/01/03 00:26:37;;;;;;;1.85;0.30;;;4.00;99.90;;;;;;4957117;28;20043;-64
2023/01/03 00:29:03;;;;;;;1.05;0.25;;;4.00;99.90;;;;;;4953682;28;20150;-65
2023/01/03 00:31:32;;;;;;;0.93;0.10;;;4.00;99.90;;;;;;4950261;28;20068;-64
2023/01/03 00:33:59;;;;;;;1.65;0.50;;;4.00;99.90;;;;;;4961563;28;20075;-64
2023/01/03 00:36:26;;;;;;;0.55;0.30;;;3.90;99.90;;;;;;4953441;28;20043;-64
2023/01/03 00:38:53;;;;;;;2.28;0.20;;;3.90;99.90;;;;;;4955266;28;20114;-63
2023/01/03 00:41:19;;;;;;;2.53;0.45;;;3.80;99.90;;;;;;4957278;28;20057;-64
2023/01/03 00:43:48;;;;;;;1.13;0.20;;;3.80;99.90;;;;;;4953807;28;20624;-65
2023/01/03 00:46:17;;;;;;;2.30;0.40;;;3.80;99.90;;;;;;4950729;28;20086;-65
2023/01/03 00:48:45;;;;;;;0.60;0.30;;;3.70;99.90;;;;;;4955774;28;20138;-64
2023/01/03 00:51:18;;;;;;;2.63;0.30;;;3.70;99.90;;;;;;4953779;28;20047;-64
2023/01/03 00:53:47;;;;;;;3.67;0.30;;;3.70;99.90;;;;;;4960415;28;20078;-64
2023/01/03 00:56:16;;;;;;;4.30;1.67;;;3.70;99.90;;;;;;4956481;28;20053;-66
2023/01/03 00:58:44;;;;;;;3.38;0.30;;;3.70;99.90;;;;;;4956334;28;20082;-66
2023/01/03 01:01:31;;;;;;;3.65;0.20;;;3.60;99.90;;;;;;4955257;28;20051;-64
2023/01/03 01:04:11;;;;;;;0.68;0.10;;;3.70;99.90;;;;;;4955805;28;20042;-64
2023/01/03 01:06:40;;;;;;;;;;;3.70;99.90;;;;;;4952504;28;20071;-64
2023/01/03 01:09:11;;;;;;;6.88;0.28;;;3.60;99.90;;;;;;4959913;28;19926;-64
2023/01/03 01:11:39;;;;;;;1.55;0.10;;;3.60;99.90;;;;;;4955131;28;20061;-64
2023/01/03 01:14:18;;;;;;;0.32;0.13;;;3.60;99.90;;;;;;4954937;28;20063;-64
2023/01/03 01:16:51;;;;;;;1.38;0.00;;;3.60;99.90;;;;;;4954022;28;20043;-64
2023/01/03 01:19:23;;;;;;;2.20;0.38;;;3.60;99.90;;;;;;4960442;28;20137;-64
2023/01/03 01:21:50;;;;;;;2.17;0.17;;;3.60;99.90;;;;;;4954341;28;20057;-64
2023/01/03 01:24:17;;;;;;;0.88;0.20;;;3.60;99.90;;;;;;4958948;28;20049;-66
2023/01/03 01:26:45;;;;;;;0.88;0.10;;;3.60;99.90;;;;;;4960402;28;20077;-64
2023/01/03 01:29:13;;;;;;;1.20;0.10;;;3.60;99.90;;;;;;4961270;28;20133;-65
2023/01/03 01:31:41;;;;;;;1.40;0.10;;;3.50;99.90;;;;;;4956693;28;20078;-64
2023/01/03 01:34:08;;;;;;;4.75;1.40;;;3.50;99.90;;;;;;4954917;28;20177;-64
2023/01/03 01:36:38;;;;;;;1.33;0.25;;;3.50;99.90;;;;;;4958668;28;20484;-64
2023/01/03 01:39:14;;;;;;;0.63;0.38;;;3.40;99.90;;;;;;4962180;28;20517;-64
2023/01/03 01:44:47;;;;;;;3.22;0.10;;;3.40;99.90;;;;;;4953196;28;20047;-64
2023/01/03 01:47:30;;;;;;;0.15;0.15;;;3.40;99.90;;;;;;4954571;28;20078;-66
2023/01/03 01:50:09;;;;;;;0.28;0.13;;;3.40;99.90;;;;;;4956724;28;20050;-64
2023/01/03 01:52:39;;;;;;;0.10;0.10;;;3.40;99.90;;;;;;4952889;28;20175;-69
2023/01/03 01:55:12;;;;;;;0.20;0.20;;;3.40;99.90;;;;;;4960741;28;20129;-64
2023/01/03 01:57:40;;;;;;;1.20;0.25;;;3.40;99.90;;;;;;4959019;28;20047;-64
2023/01/03 02:00:08;;;;;;;0.20;0.20;;;3.30;99.90;;;;;;4959377;28;20135;-64
2023/01/03 02:02:42;;;;;;;0.50;0.10;;;3.30;99.90;;;;;;4955510;28;20138;-64
2023/01/03 02:05:09;;;;;;;1.27;0.10;;;3.20;99.90;;;;;;4961769;28;20401;-64
2023/01/03 02:07:37;;;;;;;0.28;0.10;;;3.20;99.90;;;;;;4958678;28;20540;-66
2023/01/03 02:10:05;;;;;;;1.27;0.52;;;3.20;99.90;;;;;;4961934;28;20051;-64
2023/01/03 02:13:05;;;;;;;0.30;0.10;;;3.20;99.90;;;;;;4958456;28;20051;-64
2023/01/03 02:15:32;;;;;;;;;;;3.20;99.90;;;;;;4959636;28;20086;-65
2023/01/03 02:18:21;;;;;;;0.93;0.10;;;3.20;99.90;;;;;;4961187;28;20005;-64
2023/01/03 02:21:13;;;;;;;1.50;0.50;;;3.10;99.90;;;;;;4963114;28;20088;-66
2023/01/03 02:24:15;;;;;;;1.33;0.13;;;3.20;99.90;;;;;;4964513;28;20386;-63
2023/01/03 02:26:57;;;;;;;1.58;0.30;;;3.10;99.90;;;;;;4958871;28;20057;-65
2023/01/03 02:29:45;;;;;;;0.80;0.10;;;3.00;99.90;;;;;;4962208;28;20061;-64
2023/01/03 02:32:39;;;;;;;0.70;0.47;;;3.00;99.90;;;;;;4954139;28;20065;-65
2023/01/03 02:35:29;;;;;;;2.88;0.20;;;3.10;99.90;;;;;;4951905;28;20055;-64
2023/01/03 02:38:17;;;;;;;0.10;0.10;;;3.10;99.90;;;;;;4953548;28;20047;-65
2023/01/03 02:41:31;;;;;;;4.82;0.55;;;3.10;99.90;;;;;;4953418;28;20043;-63
2023/01/03 02:44:08;;;;;;;2.13;1.02;;;3.10;99.90;;;;;;4954769;28;20146;-63
2023/01/03 02:47:01;;;;;;;2.00;0.47;;;3.10;99.90;;;;;;4957177;28;20086;-64
2023/01/03 02:49:40;;;;;;;2.30;0.75;;;3.00;99.90;;;;;;4960504;28;20043;-64
2023/01/03 02:52:15;;;;;;;3.40;0.32;;;3.00;99.90;;;;;;4953462;28;20560;-64
2023/01/03 02:55:02;;;;;;;7.78;0.50;;;3.00;99.90;;;;;;4958290;28;20548;-64
2023/01/03 02:57:45;;;;;;;1.02;0.70;;;3.00;99.90;;;;;;4966448;28;20051;-67
2023/01/03 03:00:19;;;;;;;4.80;0.93;;;3.00;99.90;;;;;;4964607;28;20047;-63
2023/01/03 03:02:50;;;;;;;0.85;0.20;;;2.90;99.90;;;;;;4961856;28;20046;-65
2023/01/03 03:05:23;;;;;;;1.38;0.38;;;2.90;99.90;;;;;;4959756;28;20059;-64
2023/01/03 03:07:51;;;;;;;2.05;0.50;;;2.90;99.90;;;;;;4952078;28;20051;-64
2023/01/03 03:13:29;;;;;;;3.95;0.45;;;2.90;99.90;;;;;;4960272;28;20053;-64
2023/01/03 03:16:00;;;;;;;2.53;0.55;;;2.90;99.90;;;;;;4953495;28;20476;-63
2023/01/03 03:18:38;;;;;;;1.50;0.20;;;2.80;99.90;;;;;;4957984;28;20098;-63
2023/01/03 03:28:33;;;;;;;0.15;0.10;;;2.80;99.90;;;;;;4949193;28;20493;-64
2023/01/03 03:29:54;;;;;;;;;;;2.80;99.90;;;;;;4960133;28;20051;-64
2023/01/03 03:32:23;;;;;;;4.75;0.30;;;2.80;99.90;;;;;;4959639;28;19922;-64
2023/01/03 03:34:52;;;;;;;3.47;0.50;;;2.80;99.90;;;;;;4958538;28;20043;-65
2023/01/03 03:37:22;;;;;;;2.53;0.50;;;2.80;99.90;;;;;;4959215;28;20047;-65
2023/01/03 03:45:54;;;;;;;0.40;0.20;;;2.70;99.90;;;;;;4958325;28;20056;-65
2023/01/03 03:51:32;;;;;;;0.95;0.52;;;2.60;99.90;;;;;;4959518;28;20043;-64
2023/01/03 03:54:03;;;;;;;2.40;0.70;;;2.60;99.90;;;;;;4960504;28;20047;-64
2023/01/03 03:56:33;;;;;;;1.63;0.45;;;2.60;99.90;;;;;;4953982;28;20142;-64
2023/01/03 03:59:05;;;;;;;1.17;0.40;;;2.60;99.90;;;;;;4959391;28;20051;-66
2023/01/03 04:01:34;;;;;;;1.38;0.70;;;2.60;99.90;;;;;;4961043;28;20496;-64
2023/01/03 04:04:06;;;;;;;0.98;0.80;;;2.50;99.90;;;;;;4959568;28;20133;-64
2023/01/03 04:06:41;;;;;;;2.40;2.20;;;2.50;99.90;;;;;;4953864;28;20102;-64
2023/01/03 04:09:09;;;;;;;1.13;0.70;;;2.40;99.90;;;;;;4961653;28;20251;-64
2023/01/03 04:11:35;;;;;;;1.25;1.20;;;2.40;99.90;;;;;;4958595;28;20047;-64
2023/01/03 04:14:03;;;;;;;3.53;0.60;;;2.30;99.90;;;;;;4959139;28;20493;-65
2023/01/03 04:16:29;;;;;;;0.70;0.60;;;2.30;99.90;;;;;;4956953;28;20050;-65
2023/01/03 04:18:56;;;;;;;1.02;0.70;;;2.30;99.90;;;;;;4951757;28;20052;-64
2023/01/03 04:21:23;;;;;;;1.20;0.57;;;2.20;99.90;;;;;;4959793;28;20073;-64
2023/01/03 04:23:50;;;;;;;0.80;0.80;;;2.20;99.90;;;;;;4959513;28;20082;-65
2023/01/03 04:26:17;;;;;;;0.60;0.60;;;2.20;99.90;;;;;;4956794;28;20051;-66
2023/01/03 04:28:44;;;;;;;0.77;0.60;;;2.10;99.90;;;;;;4951715;28;20142;-63
2023/01/03 04:31:11;;;;;;;1.17;0.63;;;2.20;99.90;;;;;;4959486;28;20079;-64
2023/01/03 04:33:38;;;;;;;1.15;0.40;;;2.10;99.90;;;;;;4955508;28;20047;-64
2023/01/03 04:36:05;;;;;;;0.47;0.40;;;2.10;99.90;;;;;;4962187;28;20057;-64
2023/01/03 04:38:32;;;;;;;3.65;1.02;;;2.10;99.90;;;;;;4962677;28;20046;-63
2023/01/03 04:41:07;;;;;;;5.35;1.08;;;2.00;99.90;;;;;;4957957;28;20553;-64
2023/01/03 04:46:20;;;;;;;1.27;0.70;;;2.00;99.90;;;;;;4954144;28;20050;-65
2023/01/03 04:48:47;;;;;;;1.70;1.05;;;2.00;99.90;;;;;;4956883;28;20047;-64
2023/01/03 04:51:15;;;;;;;2.45;0.90;;;2.00;99.90;;;;;;4953212;28;20051;-65
2023/01/03 04:53:42;;;;;;;2.63;0.73;;;2.00;99.90;;;;;;4960579;28;20540;-65
2023/01/03 04:56:08;;;;;;;3.53;1.00;;;2.00;99.90;;;;;;4952834;28;20422;-64
2023/01/03 04:58:35;;;;;;;2.45;0.60;;;2.00;99.90;;;;;;4953267;28;20521;-63
2023/01/03 05:01:04;;;;;;;2.20;0.68;;;2.00;99.90;;;;;;4962948;28;20065;-64
2023/01/03 05:03:31;;;;;;;3.65;1.77;;;2.00;99.90;;;;;;4957937;28;20047;-64
2023/01/03 05:06:02;;;;;;;0.30;0.30;;;2.00;99.90;;;;;;4958977;28;20424;-64
2023/01/03 05:08:29;;;;;;;0.90;0.40;;;1.90;99.90;;;;;;4956524;28;20047;-63
2023/01/03 05:10:56;;;;;;;2.22;0.60;;;1.90;99.90;;;;;;4960087;28;20057;-64
2023/01/03 05:13:23;;;;;;;3.35;0.60;;;1.90;99.90;;;;;;4952346;28;20134;-64
2023/01/03 05:15:50;;;;;;;4.65;1.17;;;2.00;99.90;;;;;;4950893;28;20053;-64
2023/01/03 05:18:17;;;;;;;2.22;0.55;;;2.00;99.90;;;;;;4957138;28;20051;-65
2023/01/03 05:26:18;;;;;;;1.85;0.50;;;1.90;99.90;;;;;;4952787;28;20059;-66
2023/01/03 05:28:49;;;;;;;0.85;0.52;;;1.90;99.90;;;;;;4959382;28;20138;-64
2023/01/03 05:31:16;;;;;;;2.58;0.70;;;1.90;99.90;;;;;;4949257;28;20051;-65
2023/01/03 05:33:43;;;;;;;0.38;0.38;;;1.80;99.90;;;;;;4955639;28;20040;-64
2023/01/03 05:36:10;;;;;;;0.65;0.40;;;1.80;99.90;;;;;;4962968;28;20491;-66
2023/01/03 05:38:37;;;;;;;0.68;0.68;;;1.80;99.90;;;;;;4957464;28;20405;-63
2023/01/03 05:41:05;;;;;;;2.95;2.70;;;1.80;99.90;;;;;;4955537;28;20043;-63
2023/01/03 05:43:32;;;;;;;4.03;0.50;;;1.80;99.90;;;;;;4952877;28;20050;-64
2023/01/03 05:45:58;;;;;;;0.93;0.57;;;1.80;99.90;;;;;;4954268;28;20046;-64
2023/01/03 05:48:25;;;;;;;0.57;0.45;;;1.80;99.90;;;;;;4949998;28;20159;-63
2023/01/03 05:50:56;;;;;;;0.77;0.55;;;1.80;99.90;;;;;;4958828;28;20055;-65
2023/01/03 05:53:24;;;;;;;4.28;0.70;;;1.70;99.90;;;;;;4955887;28;20141;-65
2023/01/03 05:55:51;;;;;;;1.23;0.50;;;1.70;99.90;;;;;;4956916;28;20074;-65
2023/01/03 05:58:18;;;;;;;0.82;0.70;;;1.70;99.90;;;;;;4954977;28;20614;-64
2023/01/03 06:00:45;;;;;;;0.55;0.55;;;1.70;99.90;;;;;;4955739;28;20047;-64
2023/01/03 06:03:12;;;;;;;1.10;0.30;;;1.70;99.90;;;;;;4953523;28;20051;-64
2023/01/03 06:05:39;;;;;;;1.38;0.52;;;1.70;99.90;;;;;;4958424;28;20051;-65
2023/01/03 06:08:15;;;;;;;1.73;0.40;;;1.70;99.90;;;;;;4950177;28;20535;-64
2023/01/03 06:10:42;;;;;;;4.05;0.82;;;1.60;99.90;;;;;;4957491;28;20653;-64
2023/01/03 06:13:09;;;;;;;2.22;0.70;;;1.60;99.90;;;;;;4955856;28;20055;-64
2023/01/03 06:15:36;;;;;;;3.28;1.02;;;1.70;99.90;;;;;;4957189;28;20054;-64
2023/01/03 06:18:03;;;;;;;1.05;0.57;;;1.60;99.90;;;;;;4955144;28;20055;-66
2023/01/03 06:20:29;;;;;;;0.80;0.40;;;1.60;99.90;;;;;;4953068;28;20055;-64
2023/01/03 06:22:57;;;;;;;1.98;1.13;;;1.60;99.90;;;;;;4957776;28;20434;-64
2023/01/03 06:25:24;;;;;;;1.60;0.47;;;1.70;99.90;;;;;;4954406;28;20075;-65
2023/01/03 06:27:51;;;;;;;1.85;0.68;;;1.60;99.90;;;;;;4952242;28;20055;-64
2023/01/03 06:30:19;;;;;;;4.63;1.23;;;1.60;99.90;;;;;;4956886;28;20063;-65
2023/01/03 06:32:46;;;;;;;3.10;0.98;;;1.60;99.90;;;;;;4958782;28;20055;-64
2023/01/03 06:35:13;;;;;;;2.85;1.00;;;1.60;99.90;;;;;;4967556;28;20158;-64
2023/01/03 06:37:40;;;;;;;1.85;1.48;;;1.60;99.90;;;;;;4955214;28;20049;-65
2023/01/03 06:40:08;;;;;;;2.92;1.13;;;1.50;99.90;;;;;;4957369;28;20063;-65
2023/01/03 06:42:38;;;;;;;1.10;1.00;;;1.50;99.90;;;;;;4950025;28;20066;-64
2023/01/03 06:53:34;;;;;;;2.83;1.85;;;1.30;99.90;;;;;;4954469;28;20070;-65
2023/01/03 06:56:02;;;;;;;4.88;1.02;;;1.30;99.90;;;;;;4960971;28;20403;-63
2023/01/03 06:58:29;;;;;;;5.05;1.48;;;1.20;99.90;;;;;;4955877;28;20093;-65
2023/01/03 07:00:58;;;;;;;0.82;0.52;;;1.30;99.90;;;;;;4960333;28;20042;-63
2023/01/03 07:03:25;;;;;;;1.00;0.77;;;1.20;99.90;;;;;;4957305;28;20051;-64
2023/01/03 07:05:52;;;;;;;1.65;1.55;;;1.20;99.90;;;;;;4953671;28;20051;-64
2023/01/03 07:08:19;;;;;;;3.08;1.45;;;1.30;99.90;;;;;;4951561;28;20110;-64
2023/01/03 07:10:46;;;;;;;1.85;0.85;;;1.30;99.90;;;;;;4955372;28;20440;-63
2023/01/03 07:15:59;;;;;;;5.25;1.52;;;1.40;99.90;;;;;;4955776;28;20162;-64
2023/01/03 07:18:26;;;;;;;2.53;1.63;;;1.40;99.90;;;;;;4951247;28;20660;-64
2023/01/03 07:20:53;;;;;;;3.63;1.73;;;1.30;99.90;;;;;;4954224;28;20444;-64
2023/01/03 07:23:20;;;;;;;4.55;1.02;;;1.40;99.90;;;;;;4954981;28;20051;-65
2023/01/03 07:25:47;;;;;;;1.60;0.93;;;1.40;99.90;;;;;;4952937;28;20183;-64
2023/01/03 07:28:15;;;;;;;4.22;0.70;;;1.40;99.90;;;;;;4952978;28;20142;-64
2023/01/03 07:30:44;;;;;;;2.00;0.80;;;1.40;99.90;;;;;;4950711;28;20043;-65
2023/01/03 07:33:13;;;;;;;7.25;1.15;;;1.40;99.90;;;;;;4951261;28;20086;-64
2023/01/03 07:35:40;;;;;;;1.75;1.10;;;1.40;99.90;;;;;;4950061;28;20051;-64
2023/01/03 07:38:09;;;;;;;5.35;1.20;;;1.40;99.90;;;;;;4948461;28;20469;-64
2023/01/03 07:40:36;;;;;;;1.02;0.90;;;1.40;99.90;;;;;;4949614;28;20210;-64
2023/01/03 07:45:49;;;;;;;3.72;0.98;;;1.40;99.90;;;;;;4948880;28;20138;-64
2023/01/03 07:48:16;;;;;;;1.27;1.17;;;1.40;99.90;;;;;;4951319;28;20105;-66
2023/01/03 07:50:43;;;;;;;1.05;0.75;;;1.40;99.90;;;;;;4952848;28;20569;-63
2023/01/03 07:53:15;;;;;;;2.15;0.63;;;1.40;99.90;;;;;;4957633;28;20051;-68
2023/01/03 07:55:45;;;;;;;1.80;0.40;;;1.40;99.90;;;;;;4956619;28;20395;-64
2023/01/03 07:58:12;;;;;;;1.42;0.40;;;1.40;99.90;;;;;;4952328;28;20089;-67
2023/01/03 08:00:40;;;;;;;3.75;1.23;;;1.40;99.90;;;;;;4961433;28;20074;-65
2023/01/03 08:03:08;;;;;;;1.77;0.60;;;1.40;99.90;;;;;;4967660;28;20074;-64
2023/01/03 08:05:37;;;;;;;;;;;1.40;99.90;;;;;;4953718;28;20051;-64
2023/01/03 08:08:05;;;;;;;2.30;0.75;;;1.40;99.90;;;;;;4952347;28;20012;-65
2023/01/03 08:13:18;;;;;;;5.80;1.23;;;1.40;99.90;;;;;;4952532;28;20090;-65
2023/01/03 08:15:47;;;;;;;0.65;0.50;;;1.40;99.90;;;;;;4955934;28;20082;-65
2023/01/03 08:18:16;;;;;;;1.47;0.50;;;1.40;99.90;;;;;;4955793;28;20508;-64
2023/01/03 08:20:43;;;;;;;0.80;0.60;;;1.40;99.90;;;;;;4950824;28;20118;-64
2023/01/03 08:23:10;;;;;;;3.60;0.57;;;1.40;99.90;;;;;;4954187;28;20140;-64
2023/01/03 08:25:37;;;;;;;3.70;1.05;;;1.40;99.90;;;;;;4950211;28;20057;-65
2023/01/03 08:28:06;;;;;;;1.50;0.50;;;1.40;99.90;;;;;;4951427;28;20047;-64
2023/01/03 08:30:38;;;;;;;1.05;0.70;;;1.40;99.90;;;;;;4954189;28;20055;-65
2023/01/03 08:33:08;;;;;;;1.25;0.88;;;1.40;99.90;;;;;;4953411;28;20599;-64
2023/01/03 08:35:39;;;;;;;3.40;0.80;;;1.40;99.90;;;;;;4952507;28;20497;-65
2023/01/03 08:38:09;;;;;;;2.78;0.80;;;1.50;99.90;;;;;;4952486;28;20162;-66
2023/01/03 08:40:39;;;;;;;2.17;0.77;;;1.40;99.90;;;;;;4953154;28;20796;-66
2023/01/03 08:43:09;;;;;;;2.05;0.73;;;1.40;99.90;;;;;;4954001;28;20047;-65
2023/01/03 08:45:37;;;;;;;1.30;0.60;;;1.40;99.90;;;;;;4956139;28;20047;-64
2023/01/03 08:48:07;;;;;;;1.52;1.00;;;1.50;99.90;;;;;;4954497;28;20047;-66
2023/01/03 08:50:34;;;;;;;2.83;0.90;;;1.50;99.90;;;;;;4950161;28;20035;-64
2023/01/03 08:53:01;;;;;;;2.55;0.90;;;1.50;99.90;;;;;;4950358;28;20047;-66
2023/01/03 08:55:28;;;;;;;2.22;0.88;;;1.50;99.90;;;;;;4956669;28;20136;-64
2023/01/03 08:57:55;;;;;;;5.30;1.08;;;1.50;99.90;;;;;;4948124;28;20102;-64
2023/01/03 09:00:22;;;;;;;2.10;0.80;;;1.50;99.90;;;;;;4949313;28;20138;-66
2023/01/03 09:02:49;;;;;;;2.13;0.70;;;1.50;99.90;;;;;;4953394;28;20118;-65
2023/01/03 09:05:16;;;;;;;1.90;1.17;;;1.50;99.90;;;;;;4953004;28;20497;-65
2023/01/03 09:07:43;;;;;;;3.47;0.90;;;1.50;99.90;;;;;;4952800;28;20473;-65
2023/01/03 09:10:10;;;;;;;3.65;1.02;;;1.50;99.90;;;;;;4953248;28;20050;-66
2023/01/03 09:12:37;;;;;;;2.60;1.23;;;1.50;99.90;;;;;;4950347;28;20134;-65
2023/01/03 09:15:06;;;;;;;3.00;1.42;;;1.60;99.90;;;;;;4951895;28;20126;-65
2023/01/03 09:17:32;;;;;;;2.05;0.65;;;1.60;99.90;;;;;;4952397;28;20047;-67
2023/01/03 09:19:59;;;;;;;3.38;1.10;;;1.70;99.90;;;;;;4944448;28;20078;-64
2023/01/03 09:22:26;;;;;;;1.63;0.90;;;1.70;99.90;;;;;;4951272;28;20059;-68
2023/01/03 09:24:54;;;;;;;1.45;0.90;;;1.70;99.90;;;;;;4955011;28;20051;-65
2023/01/03 09:27:21;;;;;;;2.03;1.00;;;1.70;99.90;;;;;;4952476;28;21811;-65
2023/01/03 09:29:48;;;;;;;1.27;0.75;;;1.70;99.90;;;;;;4949474;28;20044;-69
2023/01/03 09:32:15;;;;;;;1.30;0.90;;;1.70;99.90;;;;;;4950915;28;20626;-69
2023/01/03 09:34:42;;;;;;;2.88;1.45;;;1.70;99.90;;;;;;4953130;28;20412;-65
2023/01/03 09:37:09;;;;;;;2.65;0.73;;;1.70;99.90;;;;;;4948073;28;20066;-67
2023/01/03 09:39:36;;;;;;;2.38;0.82;;;1.70;99.90;;;;;;4953126;28;20368;-66
2023/01/03 09:44:50;;;;;;;1.30;0.75;;;1.70;99.90;;;;;;4949528;28;20430;-67
2023/01/03 09:47:24;;;;;;;0.40;0.40;;;1.70;99.90;;;;;;4951939;28;20490;-65
2023/01/03 09:49:53;;;;;;;1.73;0.82;;;1.70;99.90;;;;;;4952038;28;20412;-65
2023/01/03 10:05:13;;;;;;;2.65;0.63;;;1.80;99.90;;;;;;4950525;28;20047;-66
2023/01/03 10:07:48;;;;;;;1.40;1.30;;;1.80;99.90;;;;;;4955284;28;20043;-64
2023/01/03 10:10:33;;;;;;;4.68;1.63;;;1.90;99.90;;;;;;4954141;28;20155;-68
2023/01/03 10:13:31;;;;;;;1.83;0.47;;;1.80;99.90;;;;;;4953054;28;20399;-65
2023/01/03 10:16:17;;;;;;;0.88;0.60;;;1.80;99.90;;;;;;4949169;28;20066;-67
2023/01/03 10:18:58;;;;;;;0.43;0.43;;;1.90;99.90;;;;;;4953881;28;20047;-66
2023/01/03 10:21:33;;;;;;;1.25;0.50;;;2.00;99.90;;;;;;4953529;28;20769;-66
2023/01/03 10:24:00;;;;;;;2.00;0.85;;;1.90;99.90;;;;;;4953192;28;20497;-67
2023/01/03 10:26:32;;;;;;;1.33;0.63;;;1.90;99.90;;;;;;4949732;28;20130;-65
2023/01/03 10:29:00;;;;;;;1.48;0.70;;;2.00;99.90;;;;;;4960950;28;20046;-66
2023/01/03 10:31:49;;;;;;;2.25;0.57;;;2.00;99.90;;;;;;4951755;28;20043;-65
2023/01/03 10:34:16;;;;;;;1.17;0.45;;;2.00;99.90;;;;;;4949082;28;20055;-66
2023/01/03 10:36:43;;;;;;;0.98;0.40;;;2.00;99.90;;;;;;4952966;28;20421;-66
2023/01/03 10:39:10;;;;;;;1.38;0.50;;;2.00;99.90;;;;;;4949109;28;20047;-67
2023/01/03 10:41:40;;;;;;;1.98;0.45;;;2.00;99.90;;;;;;4952917;28;20151;-66
2023/01/03 10:44:23;;;;;;;4.07;0.52;;;2.00;99.90;;;;;;4959297;28;20051;-70
2023/01/03 10:46:52;;;;;;;1.30;0.93;;;2.00;99.90;;;;;;4954389;28;20051;-66
2023/01/03 10:49:22;;;;;;;0.60;0.10;;;2.00;99.90;;;;;;4969538;28;20051;-65
2023/01/03 10:52:09;;;;;;;0.57;0.40;;;2.00;99.90;;;;;;4960672;28;20046;-68
2023/01/03 10:54:42;;;;;;;1.85;0.43;;;2.00;99.90;;;;;;4953972;28;20067;-66
2023/01/03 10:57:51;;;;;;;0.50;0.30;;;2.00;99.90;;;;;;4965747;28;20707;-65
2023/01/03 11:00:29;;;;;;;0.93;0.28;;;2.00;99.90;;;;;;4949907;28;20078;-66
2023/01/03 11:03:08;;;;;;;1.85;0.30;;;2.00;99.90;;;;;;4953610;28;20053;-64
2023/01/03 11:05:37;;;;;;;0.77;0.30;;;2.00;99.90;;;;;;4954903;28;20126;-67
2023/01/03 11:08:13;;;;;;;0.52;0.20;;;2.00;99.90;;;;;;4952924;28;20081;-66
2023/01/03 11:10:51;;;;;;;0.60;0.47;;;2.00;99.90;;;;;;4951300;28;20047;-65
2023/01/03 11:13:22;;;;;;;6.70;0.88;;;2.00;99.90;;;;;;4953158;28;20709;-67
2023/01/03 11:15:58;;;;;;;2.67;0.25;;;2.00;99.90;;;;;;4952828;28;20457;-66
2023/01/03 11:18:27;;;;;;;3.42;0.60;;;2.00;99.90;;;;;;4950219;28;20087;-64
2023/01/03 11:21:26;;;;;;;0.80;0.45;;;2.00;99.90;;;;;;4954350;28;20051;-65
2023/01/03 11:24:06;;;;;;;3.55;0.40;;;2.00;99.90;;;;;;4954129;28;20142;-65
2023/01/03 11:26:42;;;;;;;2.88;1.35;;;2.10;99.90;;;;;;4950485;28;20058;-67
2023/01/03 11:29:54;;;;;;;5.05;0.30;;;2.00;99.90;;;;;;4953685;28;20051;-66
2023/01/03 11:32:31;;;;;;;0.60;0.35;;;2.00;99.90;;;;;;4948631;28;20058;-66
2023/01/03 11:35:36;;;;;;;6.53;0.40;;;2.00;99.90;;;;;;4955780;28;20047;-67
2023/01/03 11:38:29;;;;;;;1.10;0.35;;;2.00;99.90;;;;;;4947445;28;20057;-70
2023/01/03 11:41:02;;;;;;;3.13;0.30;;;2.00;99.90;;;;;;4949078;28;20082;-68
2023/01/03 11:43:47;;;;;;;1.38;0.32;;;2.00;99.90;;;;;;4955258;28;20054;-67
2023/01/03 11:46:48;;;;;;;2.88;0.73;;;2.00;99.90;;;;;;4950270;28;20047;-67
2023/01/03 11:49:25;;;;;;;0.47;0.30;;;2.00;99.90;;;;;;4951745;28;20105;-66
2023/01/03 11:52:00;;;;;;;1.08;0.45;;;2.00;99.90;;;;;;4958921;28;20118;-69
2023/01/03 11:54:57;;;;;;;6.88;0.88;;;1.90;99.90;;;;;;4951315;28;20561;-66
2023/01/03 11:57:39;;;;;;;7.35;0.60;;;1.90;99.90;;;;;;4954781;28;20059;-75
2023/01/03 12:00:27;;;;;;;4.32;0.57;;;1.90;99.90;;;;;;4899294;28;20045;-66
2023/01/03 12:03:01;;;;;;;1.90;0.30;;;1.90;99.90;;;;;;4960015;28;20067;-66
2023/01/03 12:05:50;;;;;;;1.80;0.50;;;1.90;99.90;;;;;;4959644;28;20442;-67
2023/01/03 12:08:29;;;;;;;2.45;0.50;;;1.80;99.90;;;;;;4956902;28;20055;-65
2023/01/03 12:11:15;;;;;;;2.40;0.75;;;1.80;99.90;;;;;;4952363;28;20043;-65
2023/01/03 12:14:05;;;;;;;3.80;0.60;;;1.80;99.90;;;;;;4952665;28;20055;-65
2023/01/03 12:16:40;;;;;;;2.08;0.73;;;1.80;99.90;;;;;;4954922;28;20039;-65
2023/01/03 12:19:33;;;;;;;2.35;0.55;;;1.80;99.90;;;;;;4959313;28;20122;-67
2023/01/03 12:22:13;;;;;;;1.45;0.65;;;1.70;99.90;;;;;;4956084;28;20047;-67
2023/01/03 12:24:56;;;;;;;3.83;1.80;;;1.70;99.90;;;;;;4953274;28;20043;-65
2023/01/03 12:28:01;;;;;;;5.40;1.17;;;1.60;99.90;;;;;;4952080;28;20047;-65
2023/01/03 12:30:40;;;;;;;4.75;0.88;;;1.60;99.90;;;;;;4924230;28;20476;-66
2023/01/03 12:34:01;;;;;;;5.68;0.85;;;1.60;99.90;;;;;;4956673;28;20082;-66
2023/01/03 12:37:10;;;;;;;1.60;1.17;;;1.60;99.90;;;;;;4889772;29;20425;-64
2023/01/03 12:39:56;;;;;;;3.72;0.57;;;1.50;99.90;;;;;;4945413;28;20055;-64
2023/01/03 12:42:35;;;;;;;1.40;0.30;;;1.50;99.90;;;;;;4946930;28;20051;-63
2023/01/03 12:45:10;;;;;;;5.97;1.33;;;1.50;99.90;;;;;;4954338;28;20473;-65
2023/01/03 12:47:43;;;;;;;3.70;0.30;;;1.50;99.90;;;;;;4952409;28;20043;-66
2023/01/03 12:50:34;;;;;;;12.63;0.63;;;1.40;99.90;;;;;;4954962;28;20082;-64
2023/01/03 12:53:53;;;;;;;5.93;0.70;;;1.40;99.90;;;;;;4950701;28;20070;-64
2023/01/03 12:56:46;;;;;;;1.00;0.57;;;1.40;99.90;;;;;;4938627;28;20044;-67
2023/01/03 12:59:35;;;;;;;3.50;0.82;;;1.40;99.90;;;;;;4953072;28;20046;-65
2023/01/03 13:02:41;;;;;;;2.07;0.57;;;1.40;99.90;;;;;;4946371;28;20126;-66
2023/01/03 13:05:35;;;;;;;4.43;0.50;;;1.40;99.90;;;;;;4951692;28;20045;-69
2023/01/03 13:08:13;;;;;;;1.95;0.28;;;1.40;99.90;;;;;;4950499;28;20141;-67
2023/01/03 13:10:45;;;;;;;3.25;0.40;;;1.30;99.90;;;;;;4951294;28;20149;-64
2023/01/03 13:13:18;;;;;;;1.00;0.40;;;1.40;99.90;;;;;;4954484;28;20065;-65
2023/01/03 13:15:47;;;;;;;5.18;0.43;;;1.40;99.90;;;;;;4943609;28;20051;-69
2023/01/03 13:18:19;;;;;;;3.92;0.70;;;1.40;99.90;;;;;;4950747;28;20401;-66
2023/01/03 13:20:48;;;;;;;4.03;0.50;;;1.30;99.90;;;;;;4951364;28;20162;-67
2023/01/03 13:23:56;;;;;;;6.25;0.55;;;1.40;99.90;;;;;;4949564;28;20058;-65
2023/01/03 13:26:27;;;;;;;5.93;0.70;;;1.30;99.90;;;;;;4947436;28;20055;-64
2023/01/03 13:29:31;;;;;;;5.45;0.57;;;1.30;99.90;;;;;;4954185;28;20059;-63
2023/01/03 13:32:12;;;;;;;3.55;0.38;;;1.30;99.90;;;;;;4952637;28;20055;-66
2023/01/03 13:34:39;;;;;;;1.83;0.40;;;1.30;99.90;;;;;;4947735;28;20577;-67
2023/01/03 13:37:06;;;;;;;2.95;0.63;;;1.20;99.90;;;;;;4958480;28;20069;-65
2023/01/03 13:39:35;;;;;;;2.00;0.40;;;1.20;99.90;;;;;;4955139;28;20118;-66
2023/01/03 13:42:03;;;;;;;5.65;0.65;;;1.20;99.90;;;;;;4956821;28;20054;-64
2023/01/03 13:44:30;;;;;;;4.75;0.90;;;1.20;99.90;;;;;;4953136;28;20055;-65
2023/01/03 13:46:57;;;;;;;4.20;0.73;;;1.20;99.90;;;;;;4956176;28;20662;-66
2023/01/03 13:49:26;;;;;;;3.58;0.50;;;1.20;99.90;;;;;;4958341;28;20051;-65
2023/01/03 13:51:55;;;;;;;0.88;0.30;;;1.20;99.90;;;;;;4956355;28;20043;-66
2023/01/03 13:54:55;;;;;;;5.80;0.57;;;1.10;99.90;;;;;;4952204;28;20078;-66
2023/01/03 13:57:37;;;;;;;2.80;1.25;;;1.10;99.90;;;;;;4955035;28;20138;-65
2023/01/03 14:00:16;;;;;;;6.22;0.75;;;1.10;99.90;;;;;;4951450;28;20043;-71
2023/01/03 14:03:20;;;;;;;17.75;2.42;;;1.10;99.90;;;;;;4956773;28;20051;-65
2023/01/03 14:06:20;;;;;;;6.43;1.17;;;1.10;99.90;;;;;;4963446;28;20118;-66
2023/01/03 14:09:14;;;;;;;3.83;1.17;;;1.10;99.90;;;;;;4952968;28;20142;-65
2023/01/03 14:11:59;;;;;;;1.20;0.65;;;1.10;99.90;;;;;;4956452;28;20035;-64
2023/01/03 14:14:29;;;;;;;10.05;2.10;;;1.10;99.90;;;;;;4958017;28;20055;-66
2023/01/03 14:16:57;;;;;;;1.95;0.28;;;1.00;99.90;;;;;;4951549;28;20051;-67
2023/01/03 14:19:35;;;;;;;2.00;0.30;;;1.10;99.90;;;;;;4957480;28;20464;-65
2023/01/03 14:22:21;;;;;;;2.15;0.70;;;1.00;99.90;;;;;;4952463;28;20043;-66
2023/01/03 14:24:58;;;;;;;5.00;0.57;;;1.00;99.90;;;;;;4951176;28;20062;-67
2023/01/03 14:27:34;;;;;;;4.30;0.40;;;0.90;99.90;;;;;;4954142;28;20405;-66
2023/01/03 14:30:01;;;;;;;0.35;0.25;;;0.90;99.90;;;;;;4957693;28;20733;-67
2023/01/03 14:32:30;;;;;;;3.13;0.57;;;0.90;99.90;;;;;;4952270;28;20047;-69
2023/01/03 14:35:03;;;;;;;6.57;0.50;;;0.90;99.90;;;;;;4954220;28;20489;-67